sensor_id;sensor_type;location;lat;lon;timestamp;temperature;humidity
7704;DHT22;3894;49.700;10.770;2023-02-28T00:00:36;-1.90;99.90
7704;DHT22;3894;49.700;10.770;2023-02-28T00:03:02;-1.90;99.90
7704;DHT22;3894;49.700;10.770;2023-02-28T00:05:28;-1.90;99.90
7704;DHT22;3894;49.700;10.770;2023-02-28T00:07:55;-1.90;99.90
7704;DHT22;3894;49.700;10.770;2023-02-28T00:10:24;-1.90;99.90
7704;DHT22;3894;49.700;10.770;2023-02-28T00:12:51;-1.90;99.90
7704;DHT22;3894;49.700;10.770;2023-02-28T00:15:17;-1.90;99.90
7704;DHT22;3894;49.700;10.770;2023-02-28T00:17:45;-1.90;99.90
7704;DHT22;3894;49.700;10.770;2023-02-28T00:20:11;-2.00;99.90
7704;DHT22;3894;49.700;10.770;2023-02-28T00:22:44;-2.00;99.90
7704;DHT22;3894;49.700;10.770;2023-02-28T00:25:12;-2.00;99.90
7704;DHT22;3894;49.700;10.770;2023-02-28T00:27:39;-2.00;99.90
7704;DHT22;3894;49.700;10.770;2023-02-28T00:30:06;-2.00;99.90
7704;DHT22;3894;49.700;10.770;2023-02-28T00:32:34;-2.00;99.90
7704;DHT22;3894;49.700;10.770;2023-02-28T00:35:01;-2.00;99.90
7704;DHT22;3894;49.700;10.770;2023-02-28T00:37:27;-2.00;99.90
7704;DHT22;3894;49.700;10.770;2023-02-28T00:39:53;-2.00;99.90
7704;DHT22;3894;49.700;10.770;2023-02-28T00:42:21;-2.00;99.90
7704;DHT22;3894;49.700;10.770;2023-02-28T00:44:47;-2.00;99.90
7704;DHT22;3894;49.700;10.770;2023-02-28T00:47:15;-2.00;99.90
7704;DHT22;3894;49.700;10.770;2023-02-28T00:49:41;-2.00;99.90
7704;DHT22;3894;49.700;10.770;2023-02-28T00:52:07;-2.00;99.90
7704;DHT22;3894;49.700;10.770;2023-02-28T00:54:33;-2.00;99.90
7704;DHT22;3894;49.700;10.770;2023-02-28T00:56:58;-2.10;99.90
7704;DHT22;3894;49.700;10.770;2023-02-28T00:59:24;-2.10;99.90
7704;DHT22;3894;49.700;10.770;2023-02-28T01:01:50;-2.10;99.90
7704;DHT22;3894;49.700;10.770;2023-02-28T01:04:15;-2.10;99.90
7704;DHT22;3894;49.700;10.770;2023-02-28T01:06:43;-2.10;99.90
7704;DHT22;3894;49.700;10.770;2023-02-28T01:09:10;-2.10;99.90
7704;DHT22;3894;49.700;10.770;2023-02-28T01:11:35;-2.10;99.90
7704;DHT22;3894;49.700;10.770;2023-02-28T01:14:02;-2.10;99.90
7704;DHT22;3894;49.700;10.770;2023-02-28T01:16:29;-2.20;99.90
7704;DHT22;3894;49.700;10.770;2023-02-28T01:18:55;-2.20;99.90
7704;DHT22;3894;49.700;10.770;2023-02-28T01:21:21;-2.20;99.90
7704;DHT22;3894;49.700;10.770;2023-02-28T01:23:50;-2.20;99.90
7704;DHT22;3894;49.700;10.770;2023-02-28T01:26:21;-2.20;99.90
7704;DHT22;3894;49.700;10.770;2023-02-28T01:28:48;-2.20;99.90
7704;DHT22;3894;49.700;10.770;2023-02-28T01:31:17;-2.20;99.90
7704;DHT22;3894;49.700;10.770;2023-02-28T01:33:43;-2.20;99.90
7704;DHT22;3894;49.700;10.770;2023-02-28T01:36:15;-2.30;99.90
7704;DHT22;3894;49.700;10.770;2023-02-28T01:38:44;-2.30;99.90
7704;DHT22;3894;49.700;10.770;2023-02-28T01:41:21;-2.30;99.90
7704;DHT22;3894;49.700;10.770;2023-02-28T01:46:13;-2.30;99.90
7704;DHT22;3894;49.700;10.770;2023-02-28T01:48:49;-2.30;99.90
7704;DHT22;3894;49.700;10.770;2023-02-28T01:51:25;-2.30;99.90
7704;DHT22;3894;49.700;10.770;2023-02-28T01:53:56;-2.30;99.90
7704;DHT22;3894;49.700;10.770;2023-02-28T01:56:28;-2.30;99.90
7704;DHT22;3894;49.700;10.770;2023-02-28T01:58:57;-2.30;99.90
7704;DHT22;3894;49.700;10.770;2023-02-28T02:01:24;-2.30;99.90
7704;DHT22;3894;49.700;10.770;2023-02-28T02:03:54;-2.30;99.90
7704;DHT22;3894;49.700;10.770;2023-02-28T02:06:26;-2.30;99.90
7704;DHT22;3894;49.700;10.770;2023-02-28T02:08:52;-2.30;99.90
7704;DHT22;3894;49.700;10.770;2023-02-28T02:11:20;-2.30;99.90
7704;DHT22;3894;49.700;10.770;2023-02-28T02:36:47;-2.40;99.90
7704;DHT22;3894;49.700;10.770;2023-02-28T02:41:55;-2.40;99.90
7704;DHT22;3894;49.700;10.770;2023-02-28T02:47:31;-2.40;99.90
7704;DHT22;3894;49.700;10.770;2023-02-28T02:50:01;-2.40;99.90
7704;DHT22;3894;49.700;10.770;2023-02-28T02:52:36;-2.40;99.90
7704;DHT22;3894;49.700;10.770;2023-02-28T02:55:04;-2.40;99.90
7704;DHT22;3894;49.700;10.770;2023-02-28T02:57:38;-2.40;99.90
7704;DHT22;3894;49.700;10.770;2023-02-28T03:00:09;-2.50;99.90
7704;DHT22;3894;49.700;10.770;2023-02-28T03:02:39;-2.40;99.90
7704;DHT22;3894;49.700;10.770;2023-02-28T03:05:17;-2.50;99.90
7704;DHT22;3894;49.700;10.770;2023-02-28T03:07:44;-2.50;99.90
7704;DHT22;3894;49.700;10.770;2023-02-28T03:10:28;-2.50;99.90
7704;DHT22;3894;49.700;10.770;2023-02-28T03:21:24;-2.50;99.90
7704;DHT22;3894;49.700;10.770;2023-02-28T03:24:11;-2.50;99.90
7704;DHT22;3894;49.700;10.770;2023-02-28T03:26:45;-2.50;99.90
7704;DHT22;3894;49.700;10.770;2023-02-28T03:29:18;-2.50;99.90
7704;DHT22;3894;49.700;10.770;2023-02-28T03:32:08;-2.50;99.90
7704;DHT22;3894;49.700;10.770;2023-02-28T03:34:45;-2.50;99.90
7704;DHT22;3894;49.700;10.770;2023-02-28T03:37:16;-2.50;99.90
7704;DHT22;3894;49.700;10.770;2023-02-28T03:39:47;-2.50;99.90
7704;DHT22;3894;49.700;10.770;2023-02-28T03:42:20;-2.50;99.90
7704;DHT22;3894;49.700;10.770;2023-02-28T03:45:02;-2.50;99.90
7704;DHT22;3894;49.700;10.770;2023-02-28T03:47:45;-2.60;99.90
7704;DHT22;3894;49.700;10.770;2023-02-28T03:50:27;-2.60;99.90
7704;DHT22;3894;49.700;10.770;2023-02-28T03:56:22;-2.60;99.90
7704;DHT22;3894;49.700;10.770;2023-02-28T03:59:01;-2.60;99.90
7704;DHT22;3894;49.700;10.770;2023-02-28T04:01:38;-2.60;99.90
7704;DHT22;3894;49.700;10.770;2023-02-28T04:04:04;-2.60;99.90
7704;DHT22;3894;49.700;10.770;2023-02-28T04:06:32;-2.70;99.90
7704;DHT22;3894;49.700;10.770;2023-02-28T04:08:58;-2.70;99.90
7704;DHT22;3894;49.700;10.770;2023-02-28T04:11:44;-2.70;99.90
7704;DHT22;3894;49.700;10.770;2023-02-28T04:14:14;-2.70;99.90
7704;DHT22;3894;49.700;10.770;2023-02-28T04:16:41;-2.70;99.90
7704;DHT22;3894;49.700;10.770;2023-02-28T04:19:09;-2.70;99.90
7704;DHT22;3894;49.700;10.770;2023-02-28T04:21:42;-2.70;99.90
7704;DHT22;3894;49.700;10.770;2023-02-28T04:24:10;-2.70;99.90
7704;DHT22;3894;49.700;10.770;2023-02-28T04:26:40;-2.70;99.90
7704;DHT22;3894;49.700;10.770;2023-02-28T04:29:06;-2.70;99.90
7704;DHT22;3894;49.700;10.770;2023-02-28T04:31:33;-2.70;99.90
7704;DHT22;3894;49.700;10.770;2023-02-28T04:34:00;-2.70;99.90
7704;DHT22;3894;49.700;10.770;2023-02-28T04:36:28;-2.70;99.90
7704;DHT22;3894;49.700;10.770;2023-02-28T04:38:54;-2.70;99.90
7704;DHT22;3894;49.700;10.770;2023-02-28T04:41:21;-2.70;99.90
7704;DHT22;3894;49.700;10.770;2023-02-28T04:43:50;-2.70;99.90
7704;DHT22;3894;49.700;10.770;2023-02-28T04:46:16;-2.70;99.90
7704;DHT22;3894;49.700;10.770;2023-02-28T04:48:42;-2.70;99.90
7704;DHT22;3894;49.700;10.770;2023-02-28T04:51:15;-2.70;99.90
7704;DHT22;3894;49.700;10.770;2023-02-28T04:53:41;-2.70;99.90
7704;DHT22;3894;49.700;10.770;2023-02-28T04:56:10;-2.70;99.90
7704;DHT22;3894;49.700;10.770;2023-02-28T04:58:39;-2.70;99.90
7704;DHT22;3894;49.700;10.770;2023-02-28T05:01:07;-2.70;99.90
7704;DHT22;3894;49.700;10.770;2023-02-28T05:03:39;-2.70;99.90
7704;DHT22;3894;49.700;10.770;2023-02-28T05:06:11;-2.70;99.90
7704;DHT22;3894;49.700;10.770;2023-02-28T05:08:37;-2.70;99.90
7704;DHT22;3894;49.700;10.770;2023-02-28T05:11:05;-2.70;99.90
7704;DHT22;3894;49.700;10.770;2023-02-28T05:13:33;-2.70;99.90
7704;DHT22;3894;49.700;10.770;2023-02-28T05:16:03;-2.70;99.90
7704;DHT22;3894;49.700;10.770;2023-02-28T05:18:29;-2.70;99.90
7704;DHT22;3894;49.700;10.770;2023-02-28T05:20:55;-2.60;99.90
7704;DHT22;3894;49.700;10.770;2023-02-28T05:23:21;-2.60;99.90
7704;DHT22;3894;49.700;10.770;2023-02-28T05:25:50;-2.60;99.90
7704;DHT22;3894;49.700;10.770;2023-02-28T05:28:17;-2.60;99.90
7704;DHT22;3894;49.700;10.770;2023-02-28T05:30:42;-2.60;99.90
7704;DHT22;3894;49.700;10.770;2023-02-28T05:33:13;-2.60;99.90
7704;DHT22;3894;49.700;10.770;2023-02-28T05:35:43;-2.60;99.90
7704;DHT22;3894;49.700;10.770;2023-02-28T05:38:08;-2.60;99.90
7704;DHT22;3894;49.700;10.770;2023-02-28T05:40:38;-2.60;99.90
7704;DHT22;3894;49.700;10.770;2023-02-28T05:43:03;-2.60;99.90
7704;DHT22;3894;49.700;10.770;2023-02-28T05:45:29;-2.60;99.90
7704;DHT22;3894;49.700;10.770;2023-02-28T05:47:55;-2.60;99.90
7704;DHT22;3894;49.700;10.770;2023-02-28T05:50:21;-2.60;99.90
7704;DHT22;3894;49.700;10.770;2023-02-28T05:52:53;-2.60;99.90
7704;DHT22;3894;49.700;10.770;2023-02-28T05:55:18;-2.60;99.90
7704;DHT22;3894;49.700;10.770;2023-02-28T05:57:44;-2.60;99.90
7704;DHT22;3894;49.700;10.770;2023-02-28T06:00:10;-2.60;99.90
7704;DHT22;3894;49.700;10.770;2023-02-28T06:02:38;-2.60;99.90
7704;DHT22;3894;49.700;10.770;2023-02-28T06:05:05;-2.60;99.90
7704;DHT22;3894;49.700;10.770;2023-02-28T06:07:34;-2.60;99.90
7704;DHT22;3894;49.700;10.770;2023-02-28T06:09:59;-2.60;99.90
7704;DHT22;3894;49.700;10.770;2023-02-28T06:12:25;-2.60;99.90
7704;DHT22;3894;49.700;10.770;2023-02-28T06:14:53;-2.60;99.90
7704;DHT22;3894;49.700;10.770;2023-02-28T06:17:21;-2.60;99.90
7704;DHT22;3894;49.700;10.770;2023-02-28T06:19:47;-2.60;99.90
7704;DHT22;3894;49.700;10.770;2023-02-28T06:22:13;-2.50;99.90
7704;DHT22;3894;49.700;10.770;2023-02-28T06:24:39;-2.50;99.90
7704;DHT22;3894;49.700;10.770;2023-02-28T06:27:04;-2.50;99.90
7704;DHT22;3894;49.700;10.770;2023-02-28T06:29:32;-2.50;99.90
7704;DHT22;3894;49.700;10.770;2023-02-28T06:31:58;-2.40;99.90
7704;DHT22;3894;49.700;10.770;2023-02-28T06:34:24;-2.40;99.90
7704;DHT22;3894;49.700;10.770;2023-02-28T06:36:51;-2.40;99.90
7704;DHT22;3894;49.700;10.770;2023-02-28T06:39:17;-2.30;99.90
7704;DHT22;3894;49.700;10.770;2023-02-28T06:41:46;-2.30;99.90
7704;DHT22;3894;49.700;10.770;2023-02-28T06:44:16;-2.30;99.90
7704;DHT22;3894;49.700;10.770;2023-02-28T06:46:44;-2.20;99.90
7704;DHT22;3894;49.700;10.770;2023-02-28T06:49:10;-2.20;99.90
7704;DHT22;3894;49.700;10.770;2023-02-28T06:51:38;-2.10;99.90
7704;DHT22;3894;49.700;10.770;2023-02-28T06:54:04;-2.10;99.90
7704;DHT22;3894;49.700;10.770;2023-02-28T06:56:30;-2.00;99.90
7704;DHT22;3894;49.700;10.770;2023-02-28T06:58:56;-2.00;99.90
7704;DHT22;3894;49.700;10.770;2023-02-28T07:01:22;-2.00;99.90
7704;DHT22;3894;49.700;10.770;2023-02-28T07:03:49;-2.00;99.90
7704;DHT22;3894;49.700;10.770;2023-02-28T07:06:26;-1.90;99.90
7704;DHT22;3894;49.700;10.770;2023-02-28T07:08:54;-1.90;99.90
7704;DHT22;3894;49.700;10.770;2023-02-28T07:11:21;-1.80;99.90
7704;DHT22;3894;49.700;10.770;2023-02-28T07:13:51;-1.80;99.90
7704;DHT22;3894;49.700;10.770;2023-02-28T07:16:20;-1.70;99.90
7704;DHT22;3894;49.700;10.770;2023-02-28T07:18:46;-1.70;99.90
7704;DHT22;3894;49.700;10.770;2023-02-28T07:21:12;-1.60;99.90
7704;DHT22;3894;49.700;10.770;2023-02-28T07:23:41;-1.60;99.90
7704;DHT22;3894;49.700;10.770;2023-02-28T07:26:12;-1.50;99.90
7704;DHT22;3894;49.700;10.770;2023-02-28T07:28:43;-1.50;99.90
7704;DHT22;3894;49.700;10.770;2023-02-28T07:31:09;-1.40;99.90
7704;DHT22;3894;49.700;10.770;2023-02-28T07:33:35;-1.30;99.90
7704;DHT22;3894;49.700;10.770;2023-02-28T07:36:15;-1.30;99.90
7704;DHT22;3894;49.700;10.770;2023-02-28T07:38:44;-1.30;99.90
7704;DHT22;3894;49.700;10.770;2023-02-28T07:41:11;-1.30;99.90
7704;DHT22;3894;49.700;10.770;2023-02-28T07:43:40;-1.20;99.90
7704;DHT22;3894;49.700;10.770;2023-02-28T07:46:08;-1.10;99.90
7704;DHT22;3894;49.700;10.770;2023-02-28T07:48:34;-1.00;99.90
7704;DHT22;3894;49.700;10.770;2023-02-28T07:51:00;-0.80;99.90
7704;DHT22;3894;49.700;10.770;2023-02-28T07:53:27;-0.80;99.90
7704;DHT22;3894;49.700;10.770;2023-02-28T07:55:57;-0.80;99.90
7704;DHT22;3894;49.700;10.770;2023-02-28T07:58:26;-0.70;99.90
7704;DHT22;3894;49.700;10.770;2023-02-28T08:00:54;-0.50;99.90
7704;DHT22;3894;49.700;10.770;2023-02-28T08:03:22;-0.40;99.90
7704;DHT22;3894;49.700;10.770;2023-02-28T08:05:48;-0.30;99.90
7704;DHT22;3894;49.700;10.770;2023-02-28T08:08:15;-0.30;99.90
7704;DHT22;3894;49.700;10.770;2023-02-28T08:10:44;-0.20;99.90
7704;DHT22;3894;49.700;10.770;2023-02-28T08:13:09;-0.10;99.90
7704;DHT22;3894;49.700;10.770;2023-02-28T08:15:35;-0.10;99.90
7704;DHT22;3894;49.700;10.770;2023-02-28T08:18:01;0.00;99.90
7704;DHT22;3894;49.700;10.770;2023-02-28T08:20:30;0.10;99.90
7704;DHT22;3894;49.700;10.770;2023-02-28T08:22:55;0.30;99.90
7704;DHT22;3894;49.700;10.770;2023-02-28T08:25:21;0.40;99.90
7704;DHT22;3894;49.700;10.770;2023-02-28T08:27:47;0.40;99.90
7704;DHT22;3894;49.700;10.770;2023-02-28T08:30:17;0.50;99.90
7704;DHT22;3894;49.700;10.770;2023-02-28T08:32:42;0.50;99.90
7704;DHT22;3894;49.700;10.770;2023-02-28T08:35:08;0.70;99.90
7704;DHT22;3894;49.700;10.770;2023-02-28T08:37:34;0.70;99.90
7704;DHT22;3894;49.700;10.770;2023-02-28T08:40:03;0.70;99.90
7704;DHT22;3894;49.700;10.770;2023-02-28T08:42:29;0.90;99.90
7704;DHT22;3894;49.700;10.770;2023-02-28T08:44:55;1.00;99.90
7704;DHT22;3894;49.700;10.770;2023-02-28T08:47:20;1.10;99.90
7704;DHT22;3894;49.700;10.770;2023-02-28T08:49:46;1.10;99.90
7704;DHT22;3894;49.700;10.770;2023-02-28T08:52:11;1.00;99.90
7704;DHT22;3894;49.700;10.770;2023-02-28T08:54:37;1.00;99.90
7704;DHT22;3894;49.700;10.770;2023-02-28T08:57:03;1.00;99.90
7704;DHT22;3894;49.700;10.770;2023-02-28T08:59:29;0.90;99.90
7704;DHT22;3894;49.700;10.770;2023-02-28T09:01:55;1.00;99.90
7704;DHT22;3894;49.700;10.770;2023-02-28T09:04:29;1.20;99.90
7704;DHT22;3894;49.700;10.770;2023-02-28T09:06:56;1.30;99.90
7704;DHT22;3894;49.700;10.770;2023-02-28T09:09:24;1.30;99.90
7704;DHT22;3894;49.700;10.770;2023-02-28T09:11:49;1.40;99.90
7704;DHT22;3894;49.700;10.770;2023-02-28T09:14:15;1.40;99.90
7704;DHT22;3894;49.700;10.770;2023-02-28T09:16:42;1.60;99.90
7704;DHT22;3894;49.700;10.770;2023-02-28T09:19:11;1.80;99.90
7704;DHT22;3894;49.700;10.770;2023-02-28T09:21:37;1.90;99.90
7704;DHT22;3894;49.700;10.770;2023-02-28T09:24:03;2.00;99.90
7704;DHT22;3894;49.700;10.770;2023-02-28T09:26:28;2.10;99.90
7704;DHT22;3894;49.700;10.770;2023-02-28T09:28:54;2.10;99.90
7704;DHT22;3894;49.700;10.770;2023-02-28T09:31:23;2.10;99.90
7704;DHT22;3894;49.700;10.770;2023-02-28T09:33:50;2.10;99.90
7704;DHT22;3894;49.700;10.770;2023-02-28T09:36:17;2.20;99.90
7704;DHT22;3894;49.700;10.770;2023-02-28T09:38:42;2.30;99.90
7704;DHT22;3894;49.700;10.770;2023-02-28T09:41:37;2.40;99.90
7704;DHT22;3894;49.700;10.770;2023-02-28T09:44:04;2.30;99.90
7704;DHT22;3894;49.700;10.770;2023-02-28T09:46:43;2.30;99.90
7704;DHT22;3894;49.700;10.770;2023-02-28T09:49:21;2.30;99.90
7704;DHT22;3894;49.700;10.770;2023-02-28T09:51:55;2.50;99.90
7704;DHT22;3894;49.700;10.770;2023-02-28T09:54:28;2.50;99.90
7704;DHT22;3894;49.700;10.770;2023-02-28T09:59:59;2.50;99.90
7704;DHT22;3894;49.700;10.770;2023-02-28T10:02:40;2.50;99.90
7704;DHT22;3894;49.700;10.770;2023-02-28T10:05:15;2.50;99.90
7704;DHT22;3894;49.700;10.770;2023-02-28T10:07:57;2.40;99.90
7704;DHT22;3894;49.700;10.770;2023-02-28T10:11:35;2.70;99.90
7704;DHT22;3894;49.700;10.770;2023-02-28T10:16:41;2.60;99.90
7704;DHT22;3894;49.700;10.770;2023-02-28T10:22:50;2.30;99.90
7704;DHT22;3894;49.700;10.770;2023-02-28T10:25:26;2.20;99.90
7704;DHT22;3894;49.700;10.770;2023-02-28T10:28:04;2.20;99.90
7704;DHT22;3894;49.700;10.770;2023-02-28T10:30:31;2.30;99.90
7704;DHT22;3894;49.700;10.770;2023-02-28T10:32:56;2.40;99.90
7704;DHT22;3894;49.700;10.770;2023-02-28T10:35:24;2.40;99.90
7704;DHT22;3894;49.700;10.770;2023-02-28T10:37:51;2.60;99.90
7704;DHT22;3894;49.700;10.770;2023-02-28T10:40:31;2.70;99.90
7704;DHT22;3894;49.700;10.770;2023-02-28T10:43:00;3.00;99.90
7704;DHT22;3894;49.700;10.770;2023-02-28T10:45:29;3.10;99.90
7704;DHT22;3894;49.700;10.770;2023-02-28T10:58:55;3.90;99.90
7704;DHT22;3894;49.700;10.770;2023-02-28T11:07:06;3.90;99.90
7704;DHT22;3894;49.700;10.770;2023-02-28T11:09:45;3.90;99.90
7704;DHT22;3894;49.700;10.770;2023-02-28T11:12:26;3.90;99.90
7704;DHT22;3894;49.700;10.770;2023-02-28T11:14:58;4.00;99.90
7704;DHT22;3894;49.700;10.770;2023-02-28T11:17:33;3.90;99.90
7704;DHT22;3894;49.700;10.770;2023-02-28T11:20:07;3.80;99.90
7704;DHT22;3894;49.700;10.770;2023-02-28T11:22:43;3.90;99.90
7704;DHT22;3894;49.700;10.770;2023-02-28T11:25:20;4.00;99.90
7704;DHT22;3894;49.700;10.770;2023-02-28T11:27:52;4.10;99.90
7704;DHT22;3894;49.700;10.770;2023-02-28T11:32:57;4.00;99.90
7704;DHT22;3894;49.700;10.770;2023-02-28T11:35:33;3.90;99.90
7704;DHT22;3894;49.700;10.770;2023-02-28T11:38:02;3.90;99.90
7704;DHT22;3894;49.700;10.770;2023-02-28T11:49:45;4.30;99.90
7704;DHT22;3894;49.700;10.770;2023-02-28T11:58:30;4.40;99.90
7704;DHT22;3894;49.700;10.770;2023-02-28T12:34:34;4.60;99.90
7704;DHT22;3894;49.700;10.770;2023-02-28T12:37:13;4.70;99.90
7704;DHT22;3894;49.700;10.770;2023-02-28T12:39:51;4.80;99.90
7704;DHT22;3894;49.700;10.770;2023-02-28T12:50:08;4.90;99.90
7704;DHT22;3894;49.700;10.770;2023-02-28T12:59:06;4.90;99.90
7704;DHT22;3894;49.700;10.770;2023-02-28T13:04:51;5.10;99.90
7704;DHT22;3894;49.700;10.770;2023-02-28T13:07:50;5.20;99.90
7704;DHT22;3894;49.700;10.770;2023-02-28T13:10:45;5.20;99.90
7704;DHT22;3894;49.700;10.770;2023-02-28T13:13:22;5.20;99.90
7704;DHT22;3894;49.700;10.770;2023-02-28T13:25:59;5.30;99.90
7704;DHT22;3894;49.700;10.770;2023-02-28T14:09:16;4.70;99.90
7704;DHT22;3894;49.700;10.770;2023-02-28T14:11:44;4.80;99.90
7704;DHT22;3894;49.700;10.770;2023-02-28T14:17:08;4.70;99.90
7704;DHT22;3894;49.700;10.770;2023-02-28T14:19:50;4.70;99.90
7704;DHT22;3894;49.700;10.770;2023-02-28T14:22:39;4.70;99.90
7704;DHT22;3894;49.700;10.770;2023-02-28T14:33:42;4.60;99.90
7704;DHT22;3894;49.700;10.770;2023-02-28T14:36:21;4.60;99.90
7704;DHT22;3894;49.700;10.770;2023-02-28T14:38:54;4.60;99.90
7704;DHT22;3894;49.700;10.770;2023-02-28T14:41:31;4.60;99.90
7704;DHT22;3894;49.700;10.770;2023-02-28T14:44:01;4.50;99.90
7704;DHT22;3894;49.700;10.770;2023-02-28T15:07:14;4.20;99.90
7704;DHT22;3894;49.700;10.770;2023-02-28T15:09:45;4.20;99.90
7704;DHT22;3894;49.700;10.770;2023-02-28T15:12:14;4.20;99.90
7704;DHT22;3894;49.700;10.770;2023-02-28T15:19:52;4.10;99.90
7704;DHT22;3894;49.700;10.770;2023-02-28T15:22:29;4.10;99.90
7704;DHT22;3894;49.700;10.770;2023-02-28T15:25:03;4.10;99.90
7704;DHT22;3894;49.700;10.770;2023-02-28T15:27:32;4.10;99.90
7704;DHT22;3894;49.700;10.770;2023-02-28T15:30:16;4.00;99.90
7704;DHT22;3894;49.700;10.770;2023-02-28T15:32:43;4.00;99.90
7704;DHT22;3894;49.700;10.770;2023-02-28T15:37:56;4.00;99.90
7704;DHT22;3894;49.700;10.770;2023-02-28T15:40:37;3.90;99.90
7704;DHT22;3894;49.700;10.770;2023-02-28T15:43:14;3.90;99.90
7704;DHT22;3894;49.700;10.770;2023-02-28T15:45:50;3.90;99.90
7704;DHT22;3894;49.700;10.770;2023-02-28T15:48:26;3.80;99.90
7704;DHT22;3894;49.700;10.770;2023-02-28T15:51:02;3.80;99.90
7704;DHT22;3894;49.700;10.770;2023-02-28T15:56:22;3.80;99.90
7704;DHT22;3894;49.700;10.770;2023-02-28T15:58:49;3.80;99.90
7704;DHT22;3894;49.700;10.770;2023-02-28T16:01:23;3.70;99.90
7704;DHT22;3894;49.700;10.770;2023-02-28T16:03:52;3.70;99.90
7704;DHT22;3894;49.700;10.770;2023-02-28T16:08:52;3.60;99.90
7704;DHT22;3894;49.700;10.770;2023-02-28T16:11:20;3.60;99.90
7704;DHT22;3894;49.700;10.770;2023-02-28T16:13:47;3.50;99.90
7704;DHT22;3894;49.700;10.770;2023-02-28T16:16:19;3.50;99.90
7704;DHT22;3894;49.700;10.770;2023-02-28T16:18:46;3.40;99.90
7704;DHT22;3894;49.700;10.770;2023-02-28T16:21:18;3.40;99.90
7704;DHT22;3894;49.700;10.770;2023-02-28T16:23:46;3.30;99.90
7704;DHT22;3894;49.700;10.770;2023-02-28T16:26:20;3.30;99.90
7704;DHT22;3894;49.700;10.770;2023-02-28T16:28:47;3.30;99.90
7704;DHT22;3894;49.700;10.770;2023-02-28T16:31:14;3.20;99.90
7704;DHT22;3894;49.700;10.770;2023-02-28T16:33:43;3.20;99.90
7704;DHT22;3894;49.700;10.770;2023-02-28T16:36:14;3.10;99.90
7704;DHT22;3894;49.700;10.770;2023-02-28T16:38:40;3.10;99.90
7704;DHT22;3894;49.700;10.770;2023-02-28T16:41:06;3.10;99.90
7704;DHT22;3894;49.700;10.770;2023-02-28T16:43:36;3.00;99.90
7704;DHT22;3894;49.700;10.770;2023-02-28T16:46:04;3.00;99.90
7704;DHT22;3894;49.700;10.770;2023-02-28T16:48:32;3.00;99.90
7704;DHT22;3894;49.700;10.770;2023-02-28T16:50:58;2.90;99.90
7704;DHT22;3894;49.700;10.770;2023-02-28T16:53:24;2.80;99.90
7704;DHT22;3894;49.700;10.770;2023-02-28T16:55:53;2.80;99.90
7704;DHT22;3894;49.700;10.770;2023-02-28T16:58:19;2.80;99.90
7704;DHT22;3894;49.700;10.770;2023-02-28T17:00:47;2.70;99.90
7704;DHT22;3894;49.700;10.770;2023-02-28T17:03:27;2.60;99.90
7704;DHT22;3894;49.700;10.770;2023-02-28T17:05:54;2.60;99.90
7704;DHT22;3894;49.700;10.770;2023-02-28T17:08:22;2.60;99.90
7704;DHT22;3894;49.700;10.770;2023-02-28T17:10:48;2.50;99.90
7704;DHT22;3894;49.700;10.770;2023-02-28T17:13:14;2.50;99.90
7704;DHT22;3894;49.700;10.770;2023-02-28T17:15:41;2.40;99.90
7704;DHT22;3894;49.700;10.770;2023-02-28T17:18:13;2.40;99.90
7704;DHT22;3894;49.700;10.770;2023-02-28T17:20:40;2.30;99.90
7704;DHT22;3894;49.700;10.770;2023-02-28T17:23:11;2.30;99.90
7704;DHT22;3894;49.700;10.770;2023-02-28T17:25:37;2.30;99.90
7704;DHT22;3894;49.700;10.770;2023-02-28T17:28:05;2.20;99.90
7704;DHT22;3894;49.700;10.770;2023-02-28T17:30:34;2.20;99.90
7704;DHT22;3894;49.700;10.770;2023-02-28T17:33:00;2.20;99.90
7704;DHT22;3894;49.700;10.770;2023-02-28T17:35:27;2.20;99.90
7704;DHT22;3894;49.700;10.770;2023-02-28T17:38:04;2.10;99.90
7704;DHT22;3894;49.700;10.770;2023-02-28T17:40:33;2.10;99.90
7704;DHT22;3894;49.700;10.770;2023-02-28T17:43:00;2.00;99.90
7704;DHT22;3894;49.700;10.770;2023-02-28T17:45:26;2.00;99.90
7704;DHT22;3894;49.700;10.770;2023-02-28T17:47:52;2.00;99.90
7704;DHT22;3894;49.700;10.770;2023-02-28T17:50:22;1.90;99.90
7704;DHT22;3894;49.700;10.770;2023-02-28T17:52:50;1.90;99.90
7704;DHT22;3894;49.700;10.770;2023-02-28T17:55:17;1.90;99.90
7704;DHT22;3894;49.700;10.770;2023-02-28T17:57:52;1.90;99.90
7704;DHT22;3894;49.700;10.770;2023-02-28T18:00:18;1.90;99.90
7704;DHT22;3894;49.700;10.770;2023-02-28T18:02:44;1.80;99.90
7704;DHT22;3894;49.700;10.770;2023-02-28T18:05:11;1.70;99.90
7704;DHT22;3894;49.700;10.770;2023-02-28T18:07:40;1.70;99.90
7704;DHT22;3894;49.700;10.770;2023-02-28T18:10:15;1.70;99.90
7704;DHT22;3894;49.700;10.770;2023-02-28T18:12:45;1.60;99.90
7704;DHT22;3894;49.700;10.770;2023-02-28T18:15:11;1.60;99.90
7704;DHT22;3894;49.700;10.770;2023-02-28T18:17:41;1.60;99.90
7704;DHT22;3894;49.700;10.770;2023-02-28T18:20:08;1.50;99.90
7704;DHT22;3894;49.700;10.770;2023-02-28T18:22:35;1.50;99.90
7704;DHT22;3894;49.700;10.770;2023-02-28T18:25:06;1.50;99.90
7704;DHT22;3894;49.700;10.770;2023-02-28T18:27:35;1.50;99.90
7704;DHT22;3894;49.700;10.770;2023-02-28T18:30:04;1.40;99.90
7704;DHT22;3894;49.700;10.770;2023-02-28T18:32:30;1.40;99.90
7704;DHT22;3894;49.700;10.770;2023-02-28T18:34:59;1.40;99.90
7704;DHT22;3894;49.700;10.770;2023-02-28T18:37:25;1.40;99.90
7704;DHT22;3894;49.700;10.770;2023-02-28T18:39:52;1.30;99.90
7704;DHT22;3894;49.700;10.770;2023-02-28T18:42:18;1.30;99.90
7704;DHT22;3894;49.700;10.770;2023-02-28T18:44:53;1.20;99.90
7704;DHT22;3894;49.700;10.770;2023-02-28T18:47:19;1.20;99.90
7704;DHT22;3894;49.700;10.770;2023-02-28T18:49:45;1.20;99.90
7704;DHT22;3894;49.700;10.770;2023-02-28T18:52:12;1.20;99.90
7704;DHT22;3894;49.700;10.770;2023-02-28T18:54:38;1.10;99.90
7704;DHT22;3894;49.700;10.770;2023-02-28T18:57:04;1.10;99.90
7704;DHT22;3894;49.700;10.770;2023-02-28T18:59:30;1.00;99.90
7704;DHT22;3894;49.700;10.770;2023-02-28T19:01:55;1.00;99.90
7704;DHT22;3894;49.700;10.770;2023-02-28T19:04:23;1.00;99.90
7704;DHT22;3894;49.700;10.770;2023-02-28T19:06:49;1.00;99.90
7704;DHT22;3894;49.700;10.770;2023-02-28T19:09:14;1.00;99.90
7704;DHT22;3894;49.700;10.770;2023-02-28T19:11:40;1.00;99.90
7704;DHT22;3894;49.700;10.770;2023-02-28T19:14:06;0.90;99.90
7704;DHT22;3894;49.700;10.770;2023-02-28T19:16:34;0.90;99.90
7704;DHT22;3894;49.700;10.770;2023-02-28T19:19:00;0.90;99.90
7704;DHT22;3894;49.700;10.770;2023-02-28T19:21:26;0.80;99.90
7704;DHT22;3894;49.700;10.770;2023-02-28T19:23:52;0.80;99.90
7704;DHT22;3894;49.700;10.770;2023-02-28T19:26:21;0.80;99.90
7704;DHT22;3894;49.700;10.770;2023-02-28T19:28:48;0.80;99.90
7704;DHT22;3894;49.700;10.770;2023-02-28T19:31:19;0.70;99.90
7704;DHT22;3894;49.700;10.770;2023-02-28T19:33:46;0.70;99.90
7704;DHT22;3894;49.700;10.770;2023-02-28T19:36:13;0.70;99.90
7704;DHT22;3894;49.700;10.770;2023-02-28T19:38:40;0.70;99.90
7704;DHT22;3894;49.700;10.770;2023-02-28T19:41:08;0.70;99.90
7704;DHT22;3894;49.700;10.770;2023-02-28T19:43:34;0.70;99.90
7704;DHT22;3894;49.700;10.770;2023-02-28T19:46:00;0.70;99.90
7704;DHT22;3894;49.700;10.770;2023-02-28T19:48:26;0.60;99.90
7704;DHT22;3894;49.700;10.770;2023-02-28T19:51:01;0.60;99.90
7704;DHT22;3894;49.700;10.770;2023-02-28T19:53:32;0.60;99.90
7704;DHT22;3894;49.700;10.770;2023-02-28T19:55:58;0.50;99.90
7704;DHT22;3894;49.700;10.770;2023-02-28T19:58:25;0.50;99.90
7704;DHT22;3894;49.700;10.770;2023-02-28T20:00:52;0.50;99.90
7704;DHT22;3894;49.700;10.770;2023-02-28T20:03:17;0.50;99.90